createdAt,value
2017-12-28T00:02:08.627Z,99302.27
2017-12-28T00:04:37.511Z,99304.58
2017-12-28T00:07:06.163Z,99301.77
2017-12-28T00:09:34.883Z,99283.45
2017-12-28T00:12:03.767Z,99300.06
2017-12-28T00:14:32.463Z,99284.79
2017-12-28T00:17:01.084Z,99277.75
2017-12-28T00:19:30.827Z,99277.56
2017-12-28T00:21:59.363Z,99256.93
2017-12-28T00:24:28.128Z,99271.94
2017-12-28T00:26:56.880Z,99268.48
2017-12-28T00:29:25.598Z,99282.58
2017-12-28T00:31:55.008Z,99291.93
2017-12-28T00:34:24.060Z,99289.72
2017-12-28T00:36:52.776Z,99269.55
2017-12-28T00:39:21.471Z,99270.01
2017-12-28T00:41:50.511Z,99285.47
2017-12-28T00:44:19.972Z,99286.65
2017-12-28T00:46:48.618Z,99275.80
2017-12-28T00:49:17.203Z,99271.38
2017-12-28T00:51:45.882Z,99279.78
2017-12-28T00:54:14.606Z,99270.98
2017-12-28T00:56:43.402Z,99275.14
2017-12-28T00:59:11.978Z,99274.10
2017-12-28T01:01:40.664Z,99275.94
2017-12-28T01:04:09.595Z,99274.41
2017-12-28T01:06:39.010Z,99276.91
2017-12-28T01:09:08.348Z,99276.26
2017-12-28T01:11:37.296Z,99264.71
2017-12-28T01:14:06.760Z,99261.02
2017-12-28T01:16:35.307Z,99272.99
2017-12-28T01:19:04.175Z,99273.77
2017-12-28T01:21:33.645Z,99252.63
2017-12-28T01:24:02.284Z,99247.50
2017-12-28T01:26:31.209Z,99246.71
2017-12-28T01:28:59.848Z,99250.24
2017-12-28T01:31:29.184Z,99228.41
2017-12-28T01:33:57.980Z,99218.20
2017-12-28T01:36:26.679Z,99216.94
2017-12-28T01:38:55.314Z,99204.27
2017-12-28T01:41:25.034Z,99211.09
2017-12-28T01:43:53.572Z,99211.38
2017-12-28T01:46:22.132Z,99220.05
2017-12-28T01:48:50.917Z,99222.07
2017-12-28T01:51:19.604Z,99210.92
2017-12-28T01:53:48.249Z,99231.45
2017-12-28T01:56:16.976Z,99243.78
2017-12-28T01:58:45.661Z,99219.42
2017-12-28T02:01:14.326Z,99218.78
2017-12-28T02:03:43.320Z,99207.47
2017-12-28T02:06:12.026Z,99225.03
2017-12-28T02:08:40.654Z,99223.72
2017-12-28T02:11:10.173Z,99220.58
2017-12-28T02:13:39.619Z,99214.52
2017-12-28T02:16:08.257Z,99200.47
2017-12-28T02:18:38.200Z,99193.14
2017-12-28T02:21:06.906Z,99199.42
2017-12-28T02:23:35.535Z,99192.14
2017-12-28T02:26:05.101Z,99192.51
2017-12-28T02:28:33.787Z,99171.91
2017-12-28T02:31:02.472Z,99167.84
2017-12-28T02:33:31.152Z,99153.70
2017-12-28T02:36:01.342Z,99158.02
2017-12-28T02:38:29.928Z,99157.00
2017-12-28T02:40:58.713Z,99138.48
2017-12-28T02:43:27.498Z,99148.69
2017-12-28T02:45:56.184Z,99158.36
2017-12-28T02:48:25.177Z,99150.78
2017-12-28T02:50:53.806Z,99144.22
2017-12-28T02:53:23.273Z,99137.20
2017-12-28T02:55:52.019Z,99133.29
2017-12-28T02:58:20.744Z,99128.83
2017-12-28T03:00:49.527Z,99119.95
2017-12-28T03:03:18.369Z,99108.30
2017-12-28T03:05:47.679Z,99106.41
2017-12-28T03:08:16.409Z,99090.61
2017-12-28T03:10:45.401Z,99077.32
2017-12-28T03:13:14.040Z,99076.23
2017-12-28T03:15:43.486Z,99078.84
2017-12-28T03:18:12.172Z,99088.43
2017-12-28T03:20:40.858Z,99080.70
2017-12-28T03:23:09.511Z,99082.42
2017-12-28T03:25:38.275Z,99078.57
2017-12-28T03:28:07.946Z,99065.06
2017-12-28T03:30:36.732Z,99079.83
2017-12-28T03:33:05.331Z,99096.70
2017-12-28T03:35:34.004Z,99108.42
2017-12-28T03:38:02.789Z,99109.06
2017-12-28T03:40:31.679Z,99104.34
2017-12-28T03:43:00.325Z,99094.58
2017-12-28T03:45:29.054Z,99096.90
2017-12-28T03:47:57.838Z,99103.05
2017-12-28T03:50:26.525Z,99097.45
2017-12-28T03:52:55.173Z,99105.21
2017-12-28T03:55:23.897Z,99111.59
2017-12-28T03:57:52.537Z,99106.44
2017-12-28T04:00:21.981Z,99106.03
2017-12-28T04:02:51.588Z,99092.52
2017-12-28T04:05:20.275Z,99088.72
2017-12-28T04:07:48.904Z,99073.17
2017-12-28T04:10:18.568Z,99067.84
2017-12-28T04:12:47.464Z,99065.25
2017-12-28T04:15:16.149Z,99060.70
2017-12-28T04:17:45.141Z,99064.73
2017-12-28T04:20:14.589Z,99061.27
2017-12-28T04:22:43.928Z,99059.52
2017-12-28T04:25:12.635Z,99057.87
2017-12-28T04:27:41.175Z,99059.15
2017-12-28T04:30:09.863Z,99070.94
2017-12-28T04:32:38.856Z,99074.65
2017-12-28T04:35:07.577Z,99082.06
2017-12-28T04:37:36.162Z,99087.91
2017-12-28T04:40:04.860Z,99072.98
2017-12-28T04:42:33.420Z,99085.02
2017-12-28T04:45:02.123Z,99081.48
2017-12-28T04:47:30.962Z,99086.77
2017-12-28T04:49:59.691Z,99089.91
2017-12-28T04:52:28.266Z,99095.42
2017-12-28T04:54:57.065Z,99086.97
2017-12-28T04:57:25.650Z,99082.50
2017-12-28T04:59:54.192Z,99075.19
2017-12-28T05:02:23.893Z,99068.84
2017-12-28T05:04:53.343Z,99077.27
2017-12-28T05:07:21.985Z,99076.99
2017-12-28T05:09:50.714Z,99074.59
2017-12-28T05:12:19.364Z,99071.51
2017-12-28T05:14:48.086Z,99076.89
2017-12-28T05:17:16.771Z,99081.48
2017-12-28T05:19:45.458Z,99086.81
2017-12-28T05:22:14.110Z,99080.89
2017-12-28T05:24:42.874Z,99073.22
2017-12-28T05:27:11.479Z,99070.42
2017-12-28T05:29:40.201Z,99078.77
2017-12-28T05:32:08.927Z,99081.13
2017-12-28T05:34:37.682Z,99071.31
2017-12-28T05:37:06.369Z,99053.06
2017-12-28T05:39:35.152Z,99054.40
2017-12-28T05:42:03.840Z,99072.83
2017-12-28T05:44:32.623Z,99050.17
2017-12-28T05:47:01.762Z,99045.89
2017-12-28T05:49:31.224Z,99034.64
2017-12-28T05:52:00.020Z,99027.38
2017-12-28T05:54:28.705Z,99028.80
2017-12-28T05:56:57.248Z,99023.41
2017-12-28T05:59:25.967Z,99026.43
2017-12-28T06:01:55.168Z,99033.19
2017-12-28T06:04:23.835Z,99026.59
2017-12-28T06:06:52.540Z,99040.55
2017-12-28T06:09:21.325Z,99051.72
2017-12-28T06:11:50.011Z,99068.20
2017-12-28T06:14:18.656Z,99081.73
2017-12-28T06:16:47.549Z,99067.81
2017-12-28T06:19:16.277Z,99050.08
2017-12-28T06:21:44.853Z,99046.52
2017-12-28T06:24:13.549Z,99047.59
2017-12-28T06:26:42.235Z,99051.16
2017-12-28T06:29:10.921Z,99036.84
2017-12-28T06:31:39.602Z,99034.61
2017-12-28T06:34:08.294Z,99024.34
2017-12-28T06:36:36.912Z,99017.91
2017-12-28T06:39:06.635Z,99010.87
2017-12-28T06:41:36.084Z,99004.48
2017-12-28T06:44:04.719Z,98996.63
2017-12-28T06:46:34.279Z,98993.59
2017-12-28T06:49:02.904Z,98996.59
2017-12-28T06:51:32.211Z,98997.40
2017-12-28T06:54:01.915Z,98982.14
2017-12-28T06:56:31.380Z,98972.63
2017-12-28T06:58:59.997Z,98976.73
2017-12-28T07:01:28.918Z,98974.77
2017-12-28T07:03:57.635Z,98968.90
2017-12-28T07:06:26.278Z,98980.59
2017-12-28T07:08:55.691Z,98980.45
2017-12-28T07:11:24.417Z,98987.05
2017-12-28T07:13:53.053Z,98968.77
2017-12-28T07:16:22.699Z,98972.31
2017-12-28T07:18:51.287Z,98963.80
2017-12-28T07:21:19.934Z,98970.31
2017-12-28T07:23:48.967Z,98974.36
2017-12-28T07:26:17.595Z,98983.56
2017-12-28T07:28:47.061Z,98990.50
2017-12-28T07:31:15.781Z,98979.55
2017-12-28T07:33:45.245Z,98986.42
2017-12-28T07:36:13.891Z,98981.40
2017-12-28T07:38:42.617Z,98994.19
2017-12-28T07:41:11.302Z,98994.80
2017-12-28T07:43:39.944Z,99002.81
2017-12-28T07:46:08.531Z,99010.88
2017-12-28T07:48:37.262Z,99010.34
2017-12-28T07:51:05.897Z,98986.84
2017-12-28T07:53:35.614Z,98995.31
2017-12-28T07:56:04.342Z,98998.33
2017-12-28T07:58:33.025Z,99000.39
2017-12-28T08:01:01.716Z,99026.77
2017-12-28T08:03:30.397Z,98990.73
2017-12-28T08:05:59.029Z,99009.12
2017-12-28T08:08:28.592Z,99009.25
2017-12-28T08:10:57.214Z,98984.56
2017-12-28T08:13:26.527Z,98993.14
2017-12-28T08:15:56.021Z,98970.81
2017-12-28T08:18:25.486Z,98973.61
2017-12-28T08:20:54.110Z,98960.13
2017-12-28T08:23:23.675Z,98965.44
2017-12-28T08:25:52.365Z,98980.31
2017-12-28T08:28:22.013Z,98983.09
2017-12-28T08:30:51.756Z,98981.55
2017-12-28T08:33:20.464Z,98977.35
2017-12-28T08:35:49.116Z,98965.72
2017-12-28T08:38:18.045Z,98967.45
2017-12-28T08:40:46.729Z,98967.41
2017-12-28T08:43:15.514Z,98972.15
2017-12-28T08:45:44.656Z,98979.16
2017-12-28T08:48:14.115Z,98977.63
2017-12-28T08:50:42.910Z,98981.56
2017-12-28T08:53:11.695Z,98956.97
2017-12-28T08:55:41.130Z,98948.47
2017-12-28T08:58:09.890Z,98947.30
2017-12-28T09:00:38.674Z,98944.16
2017-12-28T09:03:07.411Z,98934.76
2017-12-28T09:05:36.747Z,98948.63
2017-12-28T09:08:05.696Z,98942.89
2017-12-28T09:10:35.161Z,98953.59
2017-12-28T09:13:03.818Z,98955.09
2017-12-28T09:15:32.623Z,98956.39
2017-12-28T09:18:02.244Z,98937.68
2017-12-28T09:20:31.005Z,98938.42
2017-12-28T09:22:59.777Z,98925.66
2017-12-28T09:25:28.479Z,98922.89
2017-12-28T09:27:57.113Z,98923.27
2017-12-28T09:30:26.731Z,98910.42
2017-12-28T09:32:55.460Z,98903.20
2017-12-28T09:35:24.240Z,98892.91
2017-12-28T09:37:53.342Z,98892.42
2017-12-28T09:40:21.919Z,98866.57
2017-12-28T09:42:50.569Z,98863.31
2017-12-28T09:45:19.290Z,98848.88
2017-12-28T09:47:47.956Z,98852.03
2017-12-28T09:50:16.662Z,98872.31
2017-12-28T09:52:45.387Z,98881.20
2017-12-28T09:55:14.857Z,98880.53
2017-12-28T09:57:43.432Z,98869.48
2017-12-28T10:00:12.129Z,98871.14
2017-12-28T10:02:40.759Z,98867.75
2017-12-28T10:05:10.098Z,98852.73
2017-12-28T10:07:38.998Z,98840.00
2017-12-28T10:10:07.665Z,98850.91
2017-12-28T10:12:36.371Z,98842.84
2017-12-28T10:15:05.097Z,98833.97
2017-12-28T10:17:33.852Z,98810.30
2017-12-28T10:20:02.538Z,98814.19
2017-12-28T10:22:31.380Z,98813.78
2017-12-28T10:25:00.106Z,98815.45
2017-12-28T10:27:28.696Z,98821.06
2017-12-28T10:29:57.687Z,98825.17
2017-12-28T10:32:26.324Z,98822.06
2017-12-28T10:34:55.026Z,98811.66
2017-12-28T10:37:24.086Z,98812.25
2017-12-28T10:39:52.804Z,98810.58
2017-12-28T10:42:21.473Z,98800.63
2017-12-28T10:44:50.385Z,98784.28
2017-12-28T10:47:19.030Z,98777.25
2017-12-28T10:49:47.756Z,98771.27
2017-12-28T10:52:17.616Z,98762.27
2017-12-28T10:54:47.069Z,98765.87
2017-12-28T10:57:15.702Z,98756.03
2017-12-28T10:59:45.264Z,98759.40
2017-12-28T11:02:13.950Z,98757.97
2017-12-28T11:04:42.636Z,98750.41
2017-12-28T11:07:11.572Z,98753.09
2017-12-28T11:09:41.027Z,98750.94
2017-12-28T11:12:09.616Z,98745.94
2017-12-28T11:14:38.400Z,98736.23
2017-12-28T11:17:07.085Z,98727.85
2017-12-28T11:19:35.737Z,98719.73
2017-12-28T11:22:04.463Z,98711.92
2017-12-28T11:24:33.351Z,98708.47
2017-12-28T11:27:02.037Z,98698.89
2017-12-28T11:29:30.879Z,98692.32
2017-12-28T11:32:00.330Z,98693.13
2017-12-28T11:34:29.016Z,98702.06
2017-12-28T11:36:57.705Z,98693.35
2017-12-28T11:39:26.388Z,98689.03
2017-12-28T11:41:55.177Z,98690.19
2017-12-28T11:44:23.967Z,98680.63
2017-12-28T11:46:52.652Z,98677.07
2017-12-28T11:49:22.197Z,98673.60
2017-12-28T11:51:51.758Z,98684.34
2017-12-28T11:57:30.826Z,98666.45
2017-12-28T12:00:04.927Z,98671.72
2017-12-28T12:02:39.241Z,98673.03
2017-12-28T12:05:07.927Z,98667.69
2017-12-28T12:07:46.850Z,98667.30
2017-12-28T12:10:15.645Z,98648.14
2017-12-28T12:12:44.280Z,98650.48
2017-12-28T12:15:14.136Z,98649.17
2017-12-28T12:17:42.793Z,98645.00
2017-12-28T12:20:11.434Z,98639.38
2017-12-28T12:22:40.193Z,98630.27
2017-12-28T12:25:08.879Z,98614.06
2017-12-28T12:27:37.539Z,98610.02
2017-12-28T12:30:06.604Z,98622.20
2017-12-28T12:32:35.944Z,98615.71
2017-12-28T12:35:04.590Z,98608.95
2017-12-28T12:37:34.411Z,98632.02
2017-12-28T12:40:03.870Z,98609.22
2017-12-28T12:42:32.554Z,98610.59
2017-12-28T12:45:01.306Z,98609.03
2017-12-28T12:47:29.883Z,98608.20
2017-12-28T12:49:58.568Z,98605.38
2017-12-28T12:52:27.773Z,98603.30
2017-12-28T12:54:56.435Z,98609.70
2017-12-28T12:57:25.142Z,98599.29
2017-12-28T12:59:54.996Z,98595.42
2017-12-28T13:02:24.858Z,98583.27
2017-12-28T13:04:53.597Z,98577.27
2017-12-28T13:07:23.570Z,98577.32
2017-12-28T13:09:52.192Z,98570.73
2017-12-28T13:12:21.616Z,98573.42
2017-12-28T13:14:50.649Z,98580.09
2017-12-28T13:17:19.296Z,98576.44
2017-12-28T13:19:48.020Z,98587.51
2017-12-28T13:22:16.814Z,98568.27
2017-12-28T13:24:45.500Z,98569.27
2017-12-28T13:27:14.139Z,98567.45
2017-12-28T13:29:43.836Z,98563.83
2017-12-28T13:32:13.290Z,98566.25
2017-12-28T13:34:41.977Z,98563.09
2017-12-28T13:37:10.666Z,98550.86
2017-12-28T13:39:39.248Z,98557.65
2017-12-28T13:42:07.824Z,98554.39
2017-12-28T13:44:36.766Z,98550.94
2017-12-28T13:47:06.084Z,98549.36
2017-12-28T13:49:34.776Z,98550.98
2017-12-28T13:52:03.443Z,98543.13
2017-12-28T13:54:32.899Z,98529.28
2017-12-28T13:57:01.585Z,98528.77
2017-12-28T13:59:30.576Z,98523.03
2017-12-28T14:01:59.151Z,98527.17
2017-12-28T14:04:27.937Z,98537.29
2017-12-28T14:06:56.896Z,98534.34
2017-12-28T14:09:25.626Z,98526.34
2017-12-28T14:11:54.264Z,98535.13
2017-12-28T14:14:23.754Z,98527.97
2017-12-28T14:16:53.150Z,98518.53
2017-12-28T14:19:22.617Z,98513.15
2017-12-28T14:21:51.786Z,98508.80
2017-12-28T14:24:20.502Z,98504.14
2017-12-28T14:26:49.122Z,98503.97
2017-12-28T14:29:18.793Z,98497.16
2017-12-28T14:31:47.336Z,98502.52
2017-12-28T14:34:16.724Z,98503.40
2017-12-28T14:36:46.694Z,98506.86
2017-12-28T14:39:15.336Z,98500.90
2017-12-28T14:41:43.969Z,98500.78
2017-12-28T14:44:12.751Z,98495.75
2017-12-28T14:46:42.258Z,98510.72
2017-12-28T14:49:10.832Z,98518.47
2017-12-28T14:51:39.826Z,98518.24
2017-12-28T14:54:08.511Z,98524.73
2017-12-28T14:56:37.282Z,98533.94
2017-12-28T14:59:06.099Z,98534.84
2017-12-28T15:01:34.775Z,98542.57
2017-12-28T15:04:03.442Z,98546.38
2017-12-28T15:06:32.381Z,98549.22
2017-12-28T15:09:01.800Z,98551.07
2017-12-28T15:11:30.420Z,98556.44
2017-12-28T15:13:59.205Z,98559.20
2017-12-28T15:16:28.307Z,98554.58
2017-12-28T15:18:56.887Z,98545.64
2017-12-28T15:21:25.880Z,98546.16
2017-12-28T15:23:54.669Z,98545.77
2017-12-28T15:26:23.212Z,98551.13
2017-12-28T15:28:53.129Z,98547.19
2017-12-28T15:31:21.858Z,98548.44
2017-12-28T15:33:50.580Z,98548.83
2017-12-28T15:36:22.179Z,98543.89
2017-12-28T15:38:51.279Z,98545.25
2017-12-28T15:41:19.867Z,98536.94
2017-12-28T15:43:49.690Z,98542.03
2017-12-28T15:46:18.370Z,98543.57
2017-12-28T15:48:46.941Z,98551.95
2017-12-28T15:51:16.044Z,98547.41
2017-12-28T15:53:44.667Z,98542.98
2017-12-28T15:56:14.130Z,98542.73
2017-12-28T15:58:42.836Z,98549.36
2017-12-28T16:01:11.849Z,98558.30
2017-12-28T16:03:41.315Z,98560.18
2017-12-28T16:06:10.100Z,98557.73
2017-12-28T16:08:38.785Z,98552.31
2017-12-28T16:11:07.470Z,98545.63
2017-12-28T16:13:36.313Z,98536.20
2017-12-28T16:16:05.624Z,98540.81
2017-12-28T16:18:34.349Z,98532.16
2017-12-28T16:21:03.341Z,98527.94
2017-12-28T16:23:31.955Z,98526.43
2017-12-28T16:26:00.649Z,98514.17
2017-12-28T16:28:30.308Z,98518.38
2017-12-28T16:30:59.006Z,98523.39
2017-12-28T16:33:27.780Z,98535.34
2017-12-28T16:35:56.475Z,98536.52
2017-12-28T16:38:25.162Z,98540.80
2017-12-28T16:40:53.833Z,98534.23
2017-12-28T16:43:22.531Z,98534.42
2017-12-28T16:45:51.218Z,98551.03
2017-12-28T16:48:20.824Z,98552.02
2017-12-28T16:50:49.509Z,98554.47
2017-12-28T16:53:18.097Z,98546.28
2017-12-28T16:55:46.782Z,98548.77
2017-12-28T16:58:15.508Z,98547.88
2017-12-28T17:00:44.925Z,98533.88
2017-12-28T17:03:13.594Z,98535.09
2017-12-28T17:05:43.160Z,98541.70
2017-12-28T17:08:14.332Z,98548.67
2017-12-28T17:10:43.893Z,98535.59
2017-12-28T17:13:12.515Z,98544.94
2017-12-28T17:15:41.978Z,98538.14
2017-12-28T17:18:10.873Z,98530.58
2017-12-28T17:20:39.517Z,98535.51
2017-12-28T17:23:08.243Z,98537.95
2017-12-28T17:25:37.303Z,98534.12
2017-12-28T17:28:05.976Z,98535.19
2017-12-28T17:30:34.704Z,98552.00
2017-12-28T17:33:03.681Z,98550.71
2017-12-28T17:35:32.219Z,98544.33
2017-12-28T17:38:01.585Z,98531.95
2017-12-28T17:40:30.583Z,98532.30
2017-12-28T17:42:59.361Z,98534.41
2017-12-28T17:45:27.994Z,98535.58
2017-12-28T17:47:57.464Z,98531.70
2017-12-28T17:50:26.027Z,98537.98
2017-12-28T17:52:54.674Z,98536.47
2017-12-28T17:55:23.710Z,98532.13
2017-12-28T17:57:52.358Z,98522.16
2017-12-28T18:00:21.026Z,98530.59
2017-12-28T18:02:50.528Z,98519.81
2017-12-28T18:05:19.936Z,98526.27
2017-12-28T18:07:49.399Z,98516.98
2017-12-28T18:10:18.282Z,98509.12
2017-12-28T18:12:46.916Z,98503.93
2017-12-28T18:15:16.377Z,98493.08
2017-12-28T18:17:45.226Z,98510.77
2017-12-28T18:20:13.946Z,98512.19
2017-12-28T18:22:42.586Z,98513.33
2017-12-28T18:25:11.317Z,98499.39
2017-12-28T18:27:39.971Z,98509.23
2017-12-28T18:30:08.590Z,98507.56
2017-12-28T18:32:37.374Z,98494.88
2017-12-28T18:35:06.060Z,98494.41
2017-12-28T18:37:34.891Z,98510.44
2017-12-28T18:40:04.761Z,98516.93
2017-12-28T18:42:33.449Z,98518.89
2017-12-28T18:45:02.091Z,98507.78
2017-12-28T18:47:31.587Z,98490.20
2017-12-28T18:50:01.047Z,98488.82
2017-12-28T18:52:29.719Z,98483.70
2017-12-28T18:54:58.414Z,98483.60
2017-12-28T18:57:26.995Z,98473.85
2017-12-28T18:59:55.626Z,98474.61
2017-12-28T19:02:25.444Z,98487.30
2017-12-28T19:04:54.896Z,98490.16
2017-12-28T19:07:23.584Z,98491.48
2017-12-28T19:09:52.577Z,98490.52
2017-12-28T19:12:21.240Z,98493.75
2017-12-28T19:14:49.909Z,98498.23
2017-12-28T19:17:18.631Z,98496.68
2017-12-28T19:19:47.317Z,98492.63
2017-12-28T19:22:16.003Z,98502.08
2017-12-28T19:24:44.800Z,98500.95
2017-12-28T19:27:13.418Z,98503.72
2017-12-28T19:29:42.883Z,98499.39
2017-12-28T19:32:11.632Z,98494.25
2017-12-28T19:34:40.352Z,98479.95
2017-12-28T19:37:08.970Z,98482.68
2017-12-28T19:39:39.469Z,98484.72
2017-12-28T19:42:08.155Z,98484.70
2017-12-28T19:44:36.796Z,98478.30
2017-12-28T19:47:05.589Z,98485.28
2017-12-28T19:49:34.310Z,98488.77
2017-12-28T19:52:09.888Z,98480.51
2017-12-28T19:54:38.592Z,98483.09
2017-12-28T19:57:07.311Z,98485.62
2017-12-28T19:59:36.053Z,98498.41
2017-12-28T20:02:04.697Z,98502.36
2017-12-28T20:04:33.461Z,98499.58
2017-12-28T20:07:02.307Z,98507.18
2017-12-28T20:09:31.655Z,98506.83
2017-12-28T20:12:00.243Z,98511.11
2017-12-28T20:14:29.027Z,98508.55
2017-12-28T20:16:57.703Z,98513.81
2017-12-28T20:19:26.345Z,98522.37
2017-12-28T20:21:55.810Z,98513.55
2017-12-28T20:24:24.481Z,98515.41
2017-12-28T20:26:53.168Z,98515.09
2017-12-28T20:29:21.863Z,98521.68
2017-12-28T20:31:50.539Z,98527.52
2017-12-28T20:34:19.179Z,98527.15
2017-12-28T20:36:48.119Z,98518.22
2017-12-28T20:39:16.706Z,98506.03
2017-12-28T20:41:45.282Z,98518.27
2017-12-28T20:44:15.406Z,98503.51
2017-12-28T20:46:44.041Z,98504.79
2017-12-28T20:49:13.490Z,98499.11
2017-12-28T20:51:42.692Z,98510.33
2017-12-28T20:54:11.370Z,98513.50
2017-12-28T20:56:40.063Z,98515.22
2017-12-28T20:59:09.004Z,98518.01
2017-12-28T21:01:38.454Z,98523.13
2017-12-28T21:04:07.090Z,98518.13
2017-12-28T21:06:36.648Z,98528.77
2017-12-28T21:09:05.433Z,98536.33
2017-12-28T21:11:34.069Z,98545.45
2017-12-28T21:14:02.804Z,98563.45
2017-12-28T21:16:31.599Z,98572.66
2017-12-28T21:19:00.219Z,98578.24
2017-12-28T21:21:29.991Z,98570.48
2017-12-28T21:23:58.633Z,98577.66
2017-12-28T21:26:27.364Z,98588.26
2017-12-28T21:28:56.094Z,98581.64
2017-12-28T21:31:25.447Z,98577.77
2017-12-28T21:33:54.080Z,98578.41
2017-12-28T21:36:23.548Z,98569.70
2017-12-28T21:38:52.214Z,98576.70
2017-12-28T21:41:20.905Z,98584.66
2017-12-28T21:43:49.700Z,98580.60
2017-12-28T21:46:18.388Z,98581.91
2017-12-28T21:48:46.960Z,98570.59
2017-12-28T21:51:15.705Z,98575.42
2017-12-28T21:53:45.154Z,98576.95
2017-12-28T21:56:14.716Z,98579.64
2017-12-28T21:58:43.662Z,98578.17
2017-12-28T22:01:12.243Z,98576.36
2017-12-28T22:03:40.929Z,98576.41
2017-12-28T22:06:09.665Z,98572.36
2017-12-28T22:08:39.113Z,98567.16
2017-12-28T22:11:07.750Z,98567.94
2017-12-28T22:13:37.463Z,98569.42
2017-12-28T22:16:06.914Z,98580.89
2017-12-28T22:18:36.422Z,98579.53
2017-12-28T22:21:05.920Z,98567.66
2017-12-28T22:23:34.564Z,98574.72
2017-12-28T22:26:03.157Z,98554.39
2017-12-28T22:28:32.249Z,98548.58
2017-12-28T22:31:00.970Z,98559.28
2017-12-28T22:33:29.635Z,98553.66
2017-12-28T22:35:58.503Z,98564.67
2017-12-28T22:38:27.979Z,98564.19
2017-12-28T22:40:56.738Z,98565.75
2017-12-28T22:43:25.627Z,98566.52
2017-12-28T22:45:54.313Z,98559.66
2017-12-28T22:48:22.998Z,98559.08
2017-12-28T22:50:51.683Z,98547.39
2017-12-28T22:53:20.227Z,98546.00
2017-12-28T22:55:49.622Z,98547.28
2017-12-28T22:58:19.114Z,98543.83
2017-12-28T23:00:48.578Z,98546.30
2017-12-28T23:03:17.264Z,98550.00
2017-12-28T23:05:46.059Z,98554.27
2017-12-28T23:08:14.755Z,98547.31
2017-12-28T23:10:44.966Z,98551.23
2017-12-28T23:13:14.469Z,98557.33
2017-12-28T23:15:43.150Z,98549.87
2017-12-28T23:18:11.738Z,98552.63
2017-12-28T23:20:40.522Z,98557.22
2017-12-28T23:23:09.207Z,98559.50
2017-12-28T23:25:37.893Z,98565.66
2017-12-28T23:28:06.676Z,98553.69
2017-12-28T23:30:35.373Z,98554.48
2017-12-28T23:33:04.058Z,98564.99
2017-12-28T23:35:32.783Z,98573.23
2017-12-28T23:38:02.246Z,98573.53
2017-12-28T23:40:30.929Z,98566.56
2017-12-28T23:42:59.708Z,98564.16
2017-12-28T23:45:28.299Z,98570.27
2017-12-28T23:47:56.889Z,98577.81
2017-12-28T23:50:25.671Z,98588.09
2017-12-28T23:52:55.258Z,98588.73
2017-12-28T23:55:23.926Z,98585.89
2017-12-28T23:57:52.593Z,98584.75
